createdAt,value
2018-12-19T00:00:46.617Z,12.73
2018-12-19T00:03:14.514Z,12.57
2018-12-19T00:05:42.423Z,12.33
2018-12-19T00:08:12.128Z,11.83
2018-12-19T00:10:40.601Z,10.53
2018-12-19T00:13:10.468Z,10.90
2018-12-19T00:15:38.560Z,11.23
2018-12-19T00:18:06.189Z,13.07
2018-12-19T00:20:34.202Z,11.67
2018-12-19T00:23:02.706Z,12.33
2018-12-19T00:25:30.667Z,12.17
2018-12-19T00:27:58.219Z,13.03
2018-12-19T00:30:26.112Z,13.03
2018-12-19T00:32:55.411Z,11.83
2018-12-19T00:35:25.171Z,11.27
2018-12-19T00:37:53.941Z,9.67
2018-12-19T00:40:21.913Z,11.87
2018-12-19T00:42:49.644Z,11.30
2018-12-19T00:45:17.515Z,10.77
2018-12-19T00:47:45.231Z,11.40
2018-12-19T00:50:13.855Z,16.17
2018-12-19T00:52:41.713Z,22.17
2018-12-19T00:55:11.759Z,29.23
2018-12-19T00:57:39.372Z,17.30
2018-12-19T01:00:08.075Z,13.33
2018-12-19T01:02:36.539Z,12.40
2018-12-19T01:05:05.332Z,12.03
2018-12-19T01:07:32.987Z,9.33
2018-12-19T01:10:00.891Z,10.40
2018-12-19T01:12:28.512Z,10.37
2018-12-19T01:14:56.445Z,11.27
2018-12-19T01:17:24.414Z,8.97
2018-12-19T01:19:52.130Z,12.60
2018-12-19T01:22:19.935Z,16.30
2018-12-19T01:24:50.605Z,16.70
2018-12-19T01:27:18.223Z,11.00
2018-12-19T01:29:47.189Z,10.20
2018-12-19T01:32:15.083Z,19.10
2018-12-19T01:34:43.030Z,15.27
2018-12-19T01:37:10.688Z,15.80
2018-12-19T01:39:38.522Z,12.60
2018-12-19T01:42:06.472Z,11.77
2018-12-19T01:44:34.515Z,13.07
2018-12-19T01:47:02.545Z,14.53
2018-12-19T01:49:30.576Z,15.67
2018-12-19T01:51:58.785Z,12.13
2018-12-19T01:54:26.740Z,13.43
2018-12-19T01:56:54.358Z,11.03
2018-12-19T01:59:22.664Z,10.57
2018-12-19T02:01:50.414Z,10.13
2018-12-19T02:04:18.315Z,9.43
2018-12-19T02:06:46.279Z,10.07
2018-12-19T02:09:15.111Z,8.73
2018-12-19T02:11:42.776Z,8.30
2018-12-19T02:14:10.674Z,11.10
2018-12-19T02:16:38.731Z,10.73
2018-12-19T02:19:07.087Z,12.63
2018-12-19T02:21:34.780Z,11.97
2018-12-19T02:24:03.151Z,9.47
2018-12-19T02:26:30.721Z,8.47
2018-12-19T02:28:58.287Z,9.00
2018-12-19T02:31:25.810Z,9.67
2018-12-19T02:33:53.351Z,8.07
2018-12-19T02:36:20.877Z,8.37
2018-12-19T02:38:48.426Z,8.77
2018-12-19T02:41:15.941Z,9.43
2018-12-19T02:43:43.487Z,11.07
2018-12-19T02:46:11.008Z,9.73
2018-12-19T02:48:38.557Z,9.83
2018-12-19T02:51:06.076Z,9.17
2018-12-19T02:53:33.620Z,8.07
2018-12-19T02:56:01.130Z,7.53
2018-12-19T02:58:28.674Z,7.27
2018-12-19T03:00:56.195Z,7.97
2018-12-19T03:03:23.728Z,7.30
2018-12-19T03:05:51.237Z,8.10
2018-12-19T03:08:18.735Z,7.67
2018-12-19T03:10:46.675Z,7.90
2018-12-19T03:13:14.190Z,9.40
2018-12-19T03:15:41.775Z,12.17
2018-12-19T03:18:09.293Z,11.63
2018-12-19T03:20:36.845Z,11.73
2018-12-19T03:23:04.566Z,11.30
2018-12-19T03:25:32.100Z,9.97
2018-12-19T03:27:59.661Z,10.30
2018-12-19T03:30:27.211Z,8.27
2018-12-19T03:32:54.740Z,10.27
2018-12-19T03:35:22.296Z,14.37
2018-12-19T03:37:49.938Z,12.40
2018-12-19T03:40:17.483Z,10.87
2018-12-19T03:42:45.007Z,14.87
2018-12-19T03:45:12.569Z,14.00
2018-12-19T03:47:40.318Z,17.27
2018-12-19T03:50:08.058Z,11.80
2018-12-19T03:52:35.568Z,10.90
2018-12-19T03:55:03.399Z,11.60
2018-12-19T03:57:31.436Z,10.73
2018-12-19T03:59:59.115Z,10.63
2018-12-19T04:02:26.652Z,11.73
2018-12-19T04:04:54.202Z,10.67
2018-12-19T04:07:21.748Z,9.97
2018-12-19T04:09:49.265Z,10.07
2018-12-19T04:12:16.806Z,8.93
2018-12-19T04:14:44.308Z,9.50
2018-12-19T04:17:11.853Z,11.87
2018-12-19T04:19:39.363Z,9.70
2018-12-19T04:22:06.898Z,10.33
2018-12-19T04:24:34.403Z,10.40
2018-12-19T04:27:01.934Z,9.93
2018-12-19T04:29:29.544Z,9.60
2018-12-19T04:31:57.068Z,9.47
2018-12-19T04:34:24.578Z,8.13
2018-12-19T04:36:52.095Z,7.50
2018-12-19T04:39:19.611Z,7.77
2018-12-19T04:41:47.151Z,7.93
2018-12-19T04:44:14.684Z,7.37
2018-12-19T04:46:42.315Z,7.83
2018-12-19T04:49:09.823Z,7.57
2018-12-19T04:51:37.383Z,7.67
2018-12-19T04:54:04.884Z,7.47
2018-12-19T04:56:32.429Z,6.57
2018-12-19T04:58:59.943Z,7.33
2018-12-19T05:01:27.467Z,7.80
2018-12-19T05:03:54.973Z,6.07
2018-12-19T05:06:22.515Z,6.27
2018-12-19T05:08:50.023Z,6.67
2018-12-19T05:11:17.562Z,6.00
2018-12-19T05:13:45.066Z,5.90
2018-12-19T05:16:12.604Z,5.80
2018-12-19T05:18:40.113Z,5.90
2018-12-19T05:21:07.640Z,6.33
2018-12-19T05:23:35.256Z,5.87
2018-12-19T05:26:02.792Z,5.63
2018-12-19T05:28:30.315Z,5.53
2018-12-19T05:30:57.879Z,6.03
2018-12-19T05:33:25.517Z,6.30
2018-12-19T05:35:53.023Z,6.03
2018-12-19T05:38:20.567Z,6.57
2018-12-19T05:40:48.063Z,6.43
2018-12-19T05:43:15.592Z,6.43
2018-12-19T05:45:43.094Z,5.97
2018-12-19T05:48:10.619Z,7.13
2018-12-19T05:50:38.124Z,6.93
2018-12-19T05:53:05.650Z,6.73
2018-12-19T05:55:33.162Z,6.30
2018-12-19T05:58:00.706Z,6.87
2018-12-19T06:00:28.257Z,6.67
2018-12-19T06:02:55.883Z,7.97
2018-12-19T06:05:23.393Z,7.47
2018-12-19T06:07:51.007Z,8.07
2018-12-19T06:10:18.563Z,6.90
2018-12-19T06:12:46.101Z,8.07
2018-12-19T06:15:13.640Z,6.53
2018-12-19T06:17:41.205Z,7.67
2018-12-19T06:20:08.709Z,8.47
2018-12-19T06:22:36.247Z,8.83
2018-12-19T06:25:03.753Z,8.63
2018-12-19T06:27:31.300Z,8.77
2018-12-19T06:29:58.801Z,8.37
2018-12-19T06:32:26.327Z,8.23
2018-12-19T06:34:54.954Z,10.07
2018-12-19T06:37:22.612Z,9.43
2018-12-19T06:39:50.167Z,8.73
2018-12-19T06:42:17.706Z,8.77
2018-12-19T06:44:45.348Z,9.97
2018-12-19T06:47:12.941Z,8.93
2018-12-19T06:49:40.450Z,9.80
2018-12-19T06:52:08.056Z,8.90
2018-12-19T06:54:35.569Z,9.50
2018-12-19T06:57:03.218Z,9.90
2018-12-19T06:59:30.720Z,9.93
2018-12-19T07:01:58.298Z,9.60
2018-12-19T07:04:25.898Z,11.43
2018-12-19T07:06:53.444Z,15.23
2018-12-19T07:09:21.069Z,14.83
2018-12-19T07:11:48.583Z,12.77
2018-12-19T07:14:16.113Z,26.87
2018-12-19T07:16:43.728Z,13.87
2018-12-19T07:19:11.292Z,12.57
2018-12-19T07:21:38.800Z,11.10
2018-12-19T07:24:06.348Z,11.40
2018-12-19T07:26:33.868Z,11.53
2018-12-19T07:29:01.435Z,12.63
2018-12-19T07:31:28.950Z,13.03
2018-12-19T07:33:56.483Z,10.13
2018-12-19T07:36:23.984Z,11.97
2018-12-19T07:38:51.543Z,11.13
2018-12-19T07:41:19.064Z,11.83
2018-12-19T07:43:46.605Z,12.67
2018-12-19T07:46:19.701Z,12.10
2018-12-19T07:48:43.779Z,11.97
2018-12-19T07:51:11.291Z,12.00
2018-12-19T07:53:38.834Z,12.00
2018-12-19T07:56:06.548Z,10.37
2018-12-19T07:58:34.095Z,12.23
2018-12-19T08:01:01.590Z,13.40
2018-12-19T08:03:29.127Z,13.20
2018-12-19T08:05:56.638Z,12.70
2018-12-19T08:08:24.186Z,12.20
2018-12-19T08:10:52.322Z,10.90
2018-12-19T08:13:20.159Z,11.97
2018-12-19T08:15:47.664Z,12.73
2018-12-19T08:18:15.199Z,12.03
2018-12-19T08:20:42.776Z,11.70
2018-12-19T08:23:10.491Z,11.40
2018-12-19T08:25:38.059Z,12.30
2018-12-19T08:28:05.604Z,12.83
2018-12-19T08:30:33.119Z,12.60
2018-12-19T08:33:00.659Z,11.03
2018-12-19T08:35:28.173Z,11.97
2018-12-19T08:37:55.723Z,11.77
2018-12-19T08:40:23.240Z,12.03
2018-12-19T08:42:50.787Z,10.80
2018-12-19T08:45:18.381Z,11.63
2018-12-19T08:47:45.881Z,11.30
2018-12-19T08:50:13.417Z,11.40
2018-12-19T08:52:40.927Z,10.80
2018-12-19T08:55:08.563Z,11.60
2018-12-19T08:57:36.101Z,10.07
2018-12-19T09:00:05.655Z,10.03
2018-12-19T09:02:33.161Z,8.70
2018-12-19T09:05:00.699Z,9.30
2018-12-19T09:07:28.407Z,9.80
2018-12-19T09:09:56.054Z,9.17
2018-12-19T09:12:23.576Z,8.97
2018-12-19T09:14:51.116Z,9.63
2018-12-19T09:17:18.933Z,8.33
2018-12-19T09:19:47.339Z,8.73
2018-12-19T09:22:15.385Z,7.73
2018-12-19T09:24:42.949Z,8.00
2018-12-19T09:27:10.451Z,8.43
2018-12-19T09:29:37.984Z,9.07
2018-12-19T09:32:05.496Z,9.60
2018-12-19T09:34:33.036Z,8.90
2018-12-19T09:37:00.544Z,7.73
2018-12-19T09:39:28.074Z,7.70
2018-12-19T09:41:58.173Z,7.07
2018-12-19T09:44:25.783Z,7.20
2018-12-19T09:46:53.302Z,6.17
2018-12-19T09:49:20.830Z,5.63
2018-12-19T09:51:48.332Z,5.60
2018-12-19T09:54:15.872Z,5.33
2018-12-19T09:56:43.498Z,5.90
2018-12-19T09:59:11.056Z,5.43
2018-12-19T10:01:38.566Z,5.40
2018-12-19T10:04:06.099Z,5.00
2018-12-19T10:06:33.606Z,6.27
2018-12-19T10:09:01.139Z,5.20
2018-12-19T10:11:28.686Z,4.97
2018-12-19T10:13:56.256Z,4.70
2018-12-19T10:16:23.771Z,4.77
2018-12-19T10:18:51.301Z,4.57
2018-12-19T10:21:18.812Z,4.37
2018-12-19T10:23:46.336Z,4.57
2018-12-19T10:26:13.849Z,5.00
2018-12-19T10:28:41.404Z,4.37
2018-12-19T10:31:09.016Z,5.17
2018-12-19T10:33:36.533Z,4.93
2018-12-19T10:36:04.069Z,5.83
2018-12-19T10:38:31.601Z,5.40
2018-12-19T10:41:01.923Z,5.53
2018-12-19T10:43:30.347Z,5.63
2018-12-19T10:45:58.163Z,6.13
2018-12-19T10:48:26.011Z,5.90
2018-12-19T10:50:53.590Z,5.07
2018-12-19T10:53:21.909Z,6.00
2018-12-19T10:55:49.764Z,8.00
2018-12-19T10:58:17.541Z,7.60
2018-12-19T11:00:50.718Z,6.83
2018-12-19T11:03:19.292Z,4.13
2018-12-19T11:05:47.018Z,3.57
2018-12-19T11:08:15.031Z,3.70
2018-12-19T11:10:42.643Z,3.70
2018-12-19T11:13:11.129Z,3.87
2018-12-19T11:15:38.829Z,3.87
2018-12-19T11:18:07.688Z,3.87
2018-12-19T11:20:36.070Z,3.80
2018-12-19T11:23:03.699Z,3.90
2018-12-19T11:25:31.845Z,3.93
2018-12-19T11:27:59.721Z,3.13
2018-12-19T11:30:27.275Z,3.20
2018-12-19T11:32:54.780Z,3.30
2018-12-19T11:35:22.375Z,3.37
2018-12-19T11:37:50.079Z,3.40
2018-12-19T11:40:17.833Z,3.87
2018-12-19T11:42:45.862Z,3.60
2018-12-19T11:45:13.911Z,3.30
2018-12-19T11:47:41.458Z,3.53
2018-12-19T11:50:10.165Z,3.77
2018-12-19T11:52:37.822Z,3.90
2018-12-19T11:55:05.860Z,3.80
2018-12-19T11:57:34.476Z,4.50
2018-12-19T12:00:02.628Z,4.33
2018-12-19T12:02:32.962Z,4.93
2018-12-19T12:05:03.867Z,4.50
2018-12-19T12:07:32.706Z,4.63
2018-12-19T12:10:00.950Z,5.10
2018-12-19T12:12:30.724Z,5.30
2018-12-19T12:14:58.731Z,5.67
2018-12-19T12:17:26.982Z,4.93
2018-12-19T12:19:55.039Z,5.80
2018-12-19T12:22:23.131Z,6.53
2018-12-19T12:24:51.251Z,6.50
2018-12-19T12:27:19.499Z,6.77
2018-12-19T12:29:49.780Z,6.30
2018-12-19T12:32:18.972Z,6.33
2018-12-19T12:34:47.845Z,6.57
2018-12-19T12:37:16.078Z,7.00
2018-12-19T12:39:44.767Z,6.23
2018-12-19T12:42:12.860Z,6.47
2018-12-19T12:44:40.898Z,6.73
2018-12-19T12:47:08.480Z,6.93
2018-12-19T12:49:36.457Z,5.83
2018-12-19T12:52:05.268Z,5.67
2018-12-19T12:54:32.990Z,5.27
2018-12-19T12:57:01.007Z,5.47
2018-12-19T12:59:28.567Z,5.30
2018-12-19T13:01:56.645Z,5.10
2018-12-19T13:04:24.522Z,5.13
2018-12-19T13:06:52.606Z,4.60
2018-12-19T13:09:20.340Z,5.50
2018-12-19T13:11:48.294Z,4.57
2018-12-19T13:14:15.932Z,4.50
2018-12-19T13:16:43.950Z,3.83
2018-12-19T13:19:14.702Z,4.27
2018-12-19T13:21:52.177Z,3.73
2018-12-19T13:24:22.561Z,4.63
2018-12-19T13:26:50.466Z,4.40
2018-12-19T13:29:18.733Z,3.87
2018-12-19T13:31:46.995Z,4.30
2018-12-19T13:34:18.465Z,4.13
2018-12-19T13:36:47.346Z,3.57
2018-12-19T13:39:16.126Z,4.20
2018-12-19T13:41:44.718Z,4.40
2018-12-19T13:44:13.205Z,3.97
2018-12-19T13:46:41.321Z,4.03
2018-12-19T13:49:10.029Z,4.13
2018-12-19T13:51:37.623Z,4.43
2018-12-19T13:54:05.931Z,4.50
2018-12-19T13:56:35.421Z,4.37
2018-12-19T13:59:03.785Z,4.47
2018-12-19T14:01:33.256Z,4.33
2018-12-19T14:04:00.880Z,4.73
2018-12-19T14:06:31.591Z,4.20
2018-12-19T14:09:01.387Z,4.50
2018-12-19T14:11:30.772Z,4.40
2018-12-19T14:13:58.572Z,4.60
2018-12-19T14:16:26.927Z,4.13
2018-12-19T14:18:54.801Z,3.93
2018-12-19T14:21:22.698Z,3.50
2018-12-19T14:23:50.425Z,3.43
2018-12-19T14:26:21.070Z,3.77
2018-12-19T14:28:50.360Z,3.60
2018-12-19T14:31:22.202Z,3.60
2018-12-19T14:33:50.477Z,3.30
2018-12-19T14:36:19.931Z,4.00
2018-12-19T14:38:47.675Z,3.60
2018-12-19T14:41:16.614Z,4.00
2018-12-19T14:43:44.148Z,4.00
2018-12-19T14:46:11.657Z,3.93
2018-12-19T14:48:39.190Z,4.17
2018-12-19T14:51:06.791Z,4.07
2018-12-19T14:53:34.440Z,3.97
2018-12-19T14:56:01.969Z,3.80
2018-12-19T14:58:29.495Z,3.27
2018-12-19T15:00:57.054Z,3.10
2018-12-19T15:03:24.555Z,3.10
2018-12-19T15:05:52.083Z,3.30
2018-12-19T15:08:19.594Z,3.27
2018-12-19T15:10:47.133Z,3.10
2018-12-19T15:13:14.635Z,3.73
2018-12-19T15:15:44.180Z,3.57
2018-12-19T15:18:11.695Z,3.40
2018-12-19T15:20:39.222Z,3.67
2018-12-19T15:23:06.798Z,3.60
2018-12-19T15:25:34.386Z,4.00
2018-12-19T15:28:02.049Z,4.50
2018-12-19T15:30:29.735Z,3.90
2018-12-19T15:32:57.245Z,3.97
2018-12-19T15:35:24.794Z,4.20
2018-12-19T15:37:52.304Z,4.10
2018-12-19T15:40:19.858Z,4.40
2018-12-19T15:42:47.379Z,4.13
2018-12-19T15:45:14.933Z,4.83
2018-12-19T15:47:42.452Z,4.17
2018-12-19T15:50:10.008Z,4.23
2018-12-19T15:52:37.530Z,4.50
2018-12-19T15:55:05.070Z,4.97
2018-12-19T15:57:32.574Z,4.47
2018-12-19T16:00:00.105Z,4.37
2018-12-19T16:02:27.616Z,4.27
2018-12-19T16:04:55.155Z,3.87
2018-12-19T16:07:22.670Z,3.90
2018-12-19T16:09:50.211Z,4.13
2018-12-19T16:12:17.725Z,4.00
2018-12-19T16:14:45.304Z,4.10
2018-12-19T16:17:12.819Z,4.10
2018-12-19T16:19:40.384Z,4.07
2018-12-19T16:22:07.912Z,4.13
2018-12-19T16:24:35.452Z,3.47
2018-12-19T16:27:02.974Z,3.87
2018-12-19T16:29:30.558Z,3.60
2018-12-19T16:31:58.280Z,3.50
2018-12-19T16:34:25.851Z,3.63
2018-12-19T16:36:53.462Z,4.43
2018-12-19T16:39:20.979Z,4.27
2018-12-19T16:41:48.550Z,3.60
2018-12-19T16:44:16.396Z,4.03
2018-12-19T16:46:45.397Z,3.57
2018-12-19T16:49:13.079Z,3.47
2018-12-19T16:51:41.183Z,3.80
2018-12-19T16:54:09.077Z,4.20
2018-12-19T16:56:37.046Z,3.67
2018-12-19T16:59:04.931Z,3.27
2018-12-19T17:01:34.563Z,3.60
2018-12-19T17:04:02.188Z,3.60
2018-12-19T17:06:31.593Z,3.70
2018-12-19T17:08:59.171Z,3.67
2018-12-19T17:11:27.407Z,3.80
2018-12-19T17:13:56.216Z,3.93
2018-12-19T17:16:24.468Z,3.50
2018-12-19T17:18:52.149Z,4.00
2018-12-19T17:23:56.306Z,3.97
2018-12-19T17:26:24.043Z,3.90
2018-12-19T17:28:55.340Z,3.73
2018-12-19T17:31:22.978Z,3.90
2018-12-19T17:33:51.730Z,4.13
2018-12-19T17:36:22.046Z,4.10
2018-12-19T17:38:49.972Z,3.97
2018-12-19T17:41:18.303Z,3.37
2018-12-19T17:43:46.233Z,4.00
2018-12-19T17:46:14.079Z,3.90
2018-12-19T17:48:42.027Z,3.53
2018-12-19T17:51:10.865Z,3.50
2018-12-19T17:53:42.788Z,4.43
2018-12-19T17:56:12.805Z,4.23
2018-12-19T17:58:40.874Z,3.63
2018-12-19T18:01:09.101Z,3.37
2018-12-19T18:03:36.785Z,3.30
2018-12-19T18:06:04.743Z,3.93
2018-12-19T18:08:32.700Z,7.23
2018-12-19T18:11:00.716Z,7.67
2018-12-19T18:13:28.459Z,4.10
2018-12-19T18:15:56.260Z,4.67
2018-12-19T18:18:23.827Z,4.40
2018-12-19T18:20:51.494Z,4.30
2018-12-19T18:23:19.616Z,4.13
2018-12-19T18:25:49.081Z,3.83
2018-12-19T18:28:16.909Z,5.03
2018-12-19T18:30:44.577Z,6.13
2018-12-19T18:33:12.352Z,5.20
2018-12-19T18:35:40.828Z,4.00
2018-12-19T18:38:08.724Z,4.03
2018-12-19T18:40:36.307Z,4.33
2018-12-19T18:43:04.602Z,4.37
2018-12-19T18:45:32.440Z,5.13
2018-12-19T18:48:00.486Z,6.80
2018-12-19T18:50:29.709Z,7.63
2018-12-19T18:52:57.878Z,4.93
2018-12-19T18:55:25.681Z,7.10
2018-12-19T18:57:53.770Z,6.80
2018-12-19T19:00:27.383Z,7.00
2018-12-19T19:02:55.020Z,6.17
2018-12-19T19:05:23.279Z,4.53
2018-12-19T19:07:51.025Z,5.63
2018-12-19T19:10:19.295Z,6.30
2018-12-19T19:12:47.299Z,5.77
2018-12-19T19:15:14.836Z,5.50
2018-12-19T19:17:42.383Z,6.30
2018-12-19T19:20:09.891Z,5.60
2018-12-19T19:22:37.427Z,6.30
2018-12-19T19:25:05.484Z,5.73
2018-12-19T19:27:33.518Z,5.87
2018-12-19T19:30:01.112Z,5.40
2018-12-19T19:32:28.634Z,5.70
2018-12-19T19:34:56.180Z,5.77
2018-12-19T19:37:23.687Z,6.20
2018-12-19T19:39:51.787Z,6.40
2018-12-19T19:42:20.210Z,7.60
2018-12-19T19:44:48.149Z,7.27
2018-12-19T19:47:18.237Z,7.40
2018-12-19T19:49:45.824Z,7.23
2018-12-19T19:52:13.343Z,8.27
2018-12-19T19:54:41.278Z,7.27
2018-12-19T19:57:09.960Z,8.07
2018-12-19T19:59:37.491Z,6.67
2018-12-19T20:02:05.235Z,7.93
2018-12-19T20:04:32.794Z,7.77
2018-12-19T20:07:01.193Z,8.07
2018-12-19T20:09:29.072Z,7.73
2018-12-19T20:11:56.605Z,8.43
2018-12-19T20:14:24.139Z,7.87
2018-12-19T20:16:57.289Z,8.63
2018-12-19T20:19:24.865Z,8.37
2018-12-19T20:21:52.456Z,9.10
2018-12-19T20:24:20.115Z,9.63
2018-12-19T20:26:47.705Z,9.00
2018-12-19T20:29:26.426Z,9.27
2018-12-19T20:31:54.094Z,9.63
2018-12-19T20:34:21.635Z,8.53
2018-12-19T20:36:49.138Z,9.07
2018-12-19T20:39:16.698Z,8.90
2018-12-19T20:41:44.397Z,9.37
2018-12-19T20:44:11.949Z,10.60
2018-12-19T20:46:39.473Z,9.70
2018-12-19T20:49:07.063Z,10.37
2018-12-19T20:51:34.676Z,9.50
2018-12-19T20:54:02.232Z,9.93
2018-12-19T20:56:29.781Z,10.23
2018-12-19T20:58:57.324Z,9.80
2018-12-19T21:01:24.988Z,10.90
2018-12-19T21:03:52.511Z,10.87
2018-12-19T21:06:20.093Z,11.77
2018-12-19T21:08:47.620Z,11.00
2018-12-19T21:11:15.160Z,11.30
2018-12-19T21:13:46.787Z,11.20
2018-12-19T21:16:12.246Z,9.83
2018-12-19T21:18:42.625Z,11.23
2018-12-19T21:21:10.340Z,11.53
2018-12-19T21:23:37.878Z,11.77
2018-12-19T21:26:05.475Z,11.77
2018-12-19T21:28:33.007Z,11.13
2018-12-19T21:31:00.583Z,11.70
2018-12-19T21:33:28.091Z,12.10
2018-12-19T21:35:55.665Z,12.20
2018-12-19T21:38:23.195Z,10.93
2018-12-19T21:40:50.782Z,13.17
2018-12-19T21:43:18.654Z,11.37
2018-12-19T21:45:51.714Z,12.43
2018-12-19T21:48:17.727Z,12.20
2018-12-19T21:50:46.938Z,12.07
2018-12-19T21:53:14.591Z,13.27
2018-12-19T21:55:42.904Z,11.67
2018-12-19T21:58:11.157Z,12.00
2018-12-19T22:00:41.666Z,11.17
2018-12-19T22:03:10.647Z,12.50
2018-12-19T22:05:38.373Z,12.87
2018-12-19T22:08:06.035Z,14.37
2018-12-19T22:10:33.604Z,16.27
2018-12-19T22:13:01.339Z,15.40
2018-12-19T22:15:28.859Z,15.47
2018-12-19T22:18:02.003Z,15.37
2018-12-19T22:20:29.567Z,15.70
2018-12-19T22:22:58.075Z,16.50
2018-12-19T22:25:26.298Z,15.10
2018-12-19T22:27:54.100Z,16.83
2018-12-19T22:30:21.619Z,14.40
2018-12-19T22:32:49.200Z,15.80
2018-12-19T22:35:16.807Z,17.00
2018-12-19T22:37:45.483Z,15.43
2018-12-19T22:40:13.272Z,16.17
2018-12-19T22:42:42.589Z,16.57
2018-12-19T22:45:10.510Z,17.67
2018-12-19T22:47:38.249Z,15.90
2018-12-19T22:50:06.292Z,16.30
2018-12-19T22:52:34.113Z,13.93
2018-12-19T22:55:01.955Z,16.17
2018-12-19T22:57:29.717Z,15.40
2018-12-19T23:00:01.050Z,16.90
2018-12-19T23:02:35.924Z,14.10
2018-12-19T23:05:05.126Z,15.27
2018-12-19T23:07:33.639Z,15.80
2018-12-19T23:10:01.498Z,17.70
2018-12-19T23:12:29.259Z,16.80
2018-12-19T23:14:57.835Z,17.53
2018-12-19T23:17:31.060Z,17.10
2018-12-19T23:19:59.125Z,16.57
2018-12-19T23:22:28.612Z,17.10
2018-12-19T23:24:57.970Z,17.60
2018-12-19T23:27:29.121Z,16.03
2018-12-19T23:29:57.084Z,16.17
2018-12-19T23:32:31.441Z,16.47
2018-12-19T23:35:00.205Z,17.20
2018-12-19T23:37:28.254Z,17.60
2018-12-19T23:39:56.874Z,17.47
2018-12-19T23:42:25.034Z,15.40
2018-12-19T23:44:52.735Z,16.63
2018-12-19T23:47:20.826Z,18.57
2018-12-19T23:49:48.690Z,17.37
2018-12-19T23:52:16.478Z,16.97
2018-12-19T23:54:44.576Z,16.33
2018-12-19T23:57:12.167Z,16.87
2018-12-19T23:59:39.741Z,17.47
